sensor_id;sensor_type;location;lat;lon;timestamp;temperature;humidity
18426;DHT22;9340;48.756;9.226;2023-04-03T00:02:00;5.00;99.90
18426;DHT22;9340;48.756;9.226;2023-04-03T00:04:27;4.90;99.90
18426;DHT22;9340;48.756;9.226;2023-04-03T00:06:54;4.90;99.90
18426;DHT22;9340;48.756;9.226;2023-04-03T00:09:20;4.90;99.90
18426;DHT22;9340;48.756;9.226;2023-04-03T00:11:47;5.00;99.90
18426;DHT22;9340;48.756;9.226;2023-04-03T00:14:15;4.90;99.90
18426;DHT22;9340;48.756;9.226;2023-04-03T00:16:41;4.90;99.90
18426;DHT22;9340;48.756;9.226;2023-04-03T00:19:08;4.80;99.90
18426;DHT22;9340;48.756;9.226;2023-04-03T00:21:37;4.80;99.90
18426;DHT22;9340;48.756;9.226;2023-04-03T00:24:04;4.80;99.90
18426;DHT22;9340;48.756;9.226;2023-04-03T00:26:30;4.80;99.90
18426;DHT22;9340;48.756;9.226;2023-04-03T00:28:57;4.80;99.90
18426;DHT22;9340;48.756;9.226;2023-04-03T00:31:25;4.90;99.90
18426;DHT22;9340;48.756;9.226;2023-04-03T00:33:52;4.80;99.90
18426;DHT22;9340;48.756;9.226;2023-04-03T00:36:18;4.80;99.90
18426;DHT22;9340;48.756;9.226;2023-04-03T00:38:45;4.90;99.90
18426;DHT22;9340;48.756;9.226;2023-04-03T00:41:12;5.00;99.90
18426;DHT22;9340;48.756;9.226;2023-04-03T00:43:39;4.90;99.90
18426;DHT22;9340;48.756;9.226;2023-04-03T00:46:05;4.80;99.90
18426;DHT22;9340;48.756;9.226;2023-04-03T00:48:36;4.80;99.90
18426;DHT22;9340;48.756;9.226;2023-04-03T00:51:07;4.80;99.90
18426;DHT22;9340;48.756;9.226;2023-04-03T00:53:38;4.80;99.90
18426;DHT22;9340;48.756;9.226;2023-04-03T00:56:09;4.90;99.90
18426;DHT22;9340;48.756;9.226;2023-04-03T00:58:39;4.80;99.90
18426;DHT22;9340;48.756;9.226;2023-04-03T01:01:08;4.80;99.90
18426;DHT22;9340;48.756;9.226;2023-04-03T01:03:38;4.80;99.90
18426;DHT22;9340;48.756;9.226;2023-04-03T01:06:04;4.80;99.90
18426;DHT22;9340;48.756;9.226;2023-04-03T01:08:32;4.80;99.90
18426;DHT22;9340;48.756;9.226;2023-04-03T01:10:59;4.80;99.90
18426;DHT22;9340;48.756;9.226;2023-04-03T01:13:28;5.00;99.90
18426;DHT22;9340;48.756;9.226;2023-04-03T01:15:56;4.90;99.90
18426;DHT22;9340;48.756;9.226;2023-04-03T01:18:24;4.90;99.90
18426;DHT22;9340;48.756;9.226;2023-04-03T01:21:18;4.90;99.90
18426;DHT22;9340;48.756;9.226;2023-04-03T01:24:00;4.90;99.90
18426;DHT22;9340;48.756;9.226;2023-04-03T01:26:31;4.80;99.90
18426;DHT22;9340;48.756;9.226;2023-04-03T01:28:59;4.80;99.90
18426;DHT22;9340;48.756;9.226;2023-04-03T01:31:29;4.80;99.90
18426;DHT22;9340;48.756;9.226;2023-04-03T01:33:58;4.80;99.90
18426;DHT22;9340;48.756;9.226;2023-04-03T01:36:28;4.70;99.90
18426;DHT22;9340;48.756;9.226;2023-04-03T01:38:55;4.80;99.90
18426;DHT22;9340;48.756;9.226;2023-04-03T01:41:23;4.80;99.90
18426;DHT22;9340;48.756;9.226;2023-04-03T01:43:51;4.80;99.90
18426;DHT22;9340;48.756;9.226;2023-04-03T01:46:19;4.70;99.90
18426;DHT22;9340;48.756;9.226;2023-04-03T01:48:46;4.60;99.90
18426;DHT22;9340;48.756;9.226;2023-04-03T01:51:14;4.60;99.90
18426;DHT22;9340;48.756;9.226;2023-04-03T01:53:41;4.60;99.90
18426;DHT22;9340;48.756;9.226;2023-04-03T01:56:08;4.50;99.90
18426;DHT22;9340;48.756;9.226;2023-04-03T01:58:35;4.60;99.90
18426;DHT22;9340;48.756;9.226;2023-04-03T02:01:02;4.50;99.90
18426;DHT22;9340;48.756;9.226;2023-04-03T02:03:29;4.50;99.90
18426;DHT22;9340;48.756;9.226;2023-04-03T02:05:56;4.50;99.90
18426;DHT22;9340;48.756;9.226;2023-04-03T02:08:24;4.50;99.90
18426;DHT22;9340;48.756;9.226;2023-04-03T02:10:51;4.50;99.90
18426;DHT22;9340;48.756;9.226;2023-04-03T02:13:18;4.60;99.90
18426;DHT22;9340;48.756;9.226;2023-04-03T02:15:45;4.40;99.90
18426;DHT22;9340;48.756;9.226;2023-04-03T02:18:12;4.50;99.90
18426;DHT22;9340;48.756;9.226;2023-04-03T02:20:39;4.50;99.90
18426;DHT22;9340;48.756;9.226;2023-04-03T02:23:06;4.60;99.90
18426;DHT22;9340;48.756;9.226;2023-04-03T02:25:34;4.60;99.90
18426;DHT22;9340;48.756;9.226;2023-04-03T02:28:00;4.60;99.90
18426;DHT22;9340;48.756;9.226;2023-04-03T02:30:27;4.80;99.90
18426;DHT22;9340;48.756;9.226;2023-04-03T02:32:54;4.80;99.90
18426;DHT22;9340;48.756;9.226;2023-04-03T02:35:21;4.80;99.90
18426;DHT22;9340;48.756;9.226;2023-04-03T02:37:47;4.80;99.90
18426;DHT22;9340;48.756;9.226;2023-04-03T02:40:14;4.80;99.90
18426;DHT22;9340;48.756;9.226;2023-04-03T02:42:42;4.80;99.90
18426;DHT22;9340;48.756;9.226;2023-04-03T02:45:09;4.90;99.90
18426;DHT22;9340;48.756;9.226;2023-04-03T02:47:36;4.70;99.90
18426;DHT22;9340;48.756;9.226;2023-04-03T02:50:03;4.80;99.90
18426;DHT22;9340;48.756;9.226;2023-04-03T02:52:30;4.80;99.90
18426;DHT22;9340;48.756;9.226;2023-04-03T02:54:57;4.70;99.90
18426;DHT22;9340;48.756;9.226;2023-04-03T02:57:23;4.70;99.90
18426;DHT22;9340;48.756;9.226;2023-04-03T02:59:51;4.80;99.90
18426;DHT22;9340;48.756;9.226;2023-04-03T03:02:18;4.70;99.90
18426;DHT22;9340;48.756;9.226;2023-04-03T03:04:45;4.70;99.90
18426;DHT22;9340;48.756;9.226;2023-04-03T03:07:11;4.70;99.90
18426;DHT22;9340;48.756;9.226;2023-04-03T03:09:38;4.70;99.90
18426;DHT22;9340;48.756;9.226;2023-04-03T03:12:05;4.80;99.90
18426;DHT22;9340;48.756;9.226;2023-04-03T03:14:32;4.80;99.90
18426;DHT22;9340;48.756;9.226;2023-04-03T03:17:00;4.80;99.90
18426;DHT22;9340;48.756;9.226;2023-04-03T03:19:26;4.70;99.90
18426;DHT22;9340;48.756;9.226;2023-04-03T03:21:53;4.70;99.90
18426;DHT22;9340;48.756;9.226;2023-04-03T03:24:20;4.60;99.90
18426;DHT22;9340;48.756;9.226;2023-04-03T03:26:47;4.70;99.90
18426;DHT22;9340;48.756;9.226;2023-04-03T03:29:13;4.70;99.90
18426;DHT22;9340;48.756;9.226;2023-04-03T03:31:40;4.80;99.90
18426;DHT22;9340;48.756;9.226;2023-04-03T03:34:08;4.80;99.90
18426;DHT22;9340;48.756;9.226;2023-04-03T03:36:34;4.80;99.90
18426;DHT22;9340;48.756;9.226;2023-04-03T03:39:01;4.80;99.90
18426;DHT22;9340;48.756;9.226;2023-04-03T03:41:28;4.80;99.90
18426;DHT22;9340;48.756;9.226;2023-04-03T03:43:54;4.70;99.90
18426;DHT22;9340;48.756;9.226;2023-04-03T03:46:21;4.60;99.90
18426;DHT22;9340;48.756;9.226;2023-04-03T03:48:48;4.70;99.90
18426;DHT22;9340;48.756;9.226;2023-04-03T03:51:16;4.90;99.90
18426;DHT22;9340;48.756;9.226;2023-04-03T03:53:42;4.90;99.90
18426;DHT22;9340;48.756;9.226;2023-04-03T03:56:09;4.80;99.90
18426;DHT22;9340;48.756;9.226;2023-04-03T03:58:36;4.80;99.90
18426;DHT22;9340;48.756;9.226;2023-04-03T04:01:03;4.70;99.90
18426;DHT22;9340;48.756;9.226;2023-04-03T04:03:31;4.70;99.90
18426;DHT22;9340;48.756;9.226;2023-04-03T04:05:57;4.60;99.90
18426;DHT22;9340;48.756;9.226;2023-04-03T04:08:25;4.70;99.90
18426;DHT22;9340;48.756;9.226;2023-04-03T04:10:52;4.70;99.90
18426;DHT22;9340;48.756;9.226;2023-04-03T04:13:19;4.80;99.90
18426;DHT22;9340;48.756;9.226;2023-04-03T04:15:45;4.70;99.90
18426;DHT22;9340;48.756;9.226;2023-04-03T04:18:12;4.70;99.90
18426;DHT22;9340;48.756;9.226;2023-04-03T04:20:39;4.70;99.90
18426;DHT22;9340;48.756;9.226;2023-04-03T04:23:05;4.70;99.90
18426;DHT22;9340;48.756;9.226;2023-04-03T04:25:33;4.70;99.90
18426;DHT22;9340;48.756;9.226;2023-04-03T04:28:00;4.60;99.90
18426;DHT22;9340;48.756;9.226;2023-04-03T04:30:27;4.60;99.90
18426;DHT22;9340;48.756;9.226;2023-04-03T04:32:53;4.60;99.90
18426;DHT22;9340;48.756;9.226;2023-04-03T04:35:20;4.60;99.90
18426;DHT22;9340;48.756;9.226;2023-04-03T04:37:47;4.60;99.90
18426;DHT22;9340;48.756;9.226;2023-04-03T04:40:14;4.60;99.90
18426;DHT22;9340;48.756;9.226;2023-04-03T04:42:42;4.70;99.90
18426;DHT22;9340;48.756;9.226;2023-04-03T04:45:09;4.60;99.90
18426;DHT22;9340;48.756;9.226;2023-04-03T04:47:36;4.60;99.90
18426;DHT22;9340;48.756;9.226;2023-04-03T04:50:03;4.60;99.90
18426;DHT22;9340;48.756;9.226;2023-04-03T04:52:30;4.60;99.90
18426;DHT22;9340;48.756;9.226;2023-04-03T04:54:56;4.50;99.90
18426;DHT22;9340;48.756;9.226;2023-04-03T04:57:23;4.40;99.90
18426;DHT22;9340;48.756;9.226;2023-04-03T04:59:51;4.50;99.90
18426;DHT22;9340;48.756;9.226;2023-04-03T05:02:18;4.50;99.90
18426;DHT22;9340;48.756;9.226;2023-04-03T05:04:45;4.50;99.90
18426;DHT22;9340;48.756;9.226;2023-04-03T05:07:11;4.70;99.90
18426;DHT22;9340;48.756;9.226;2023-04-03T05:09:38;4.60;99.90
18426;DHT22;9340;48.756;9.226;2023-04-03T05:12:07;4.60;99.90
18426;DHT22;9340;48.756;9.226;2023-04-03T05:14:34;4.70;99.90
18426;DHT22;9340;48.756;9.226;2023-04-03T05:17:02;4.70;99.90
18426;DHT22;9340;48.756;9.226;2023-04-03T05:19:28;4.70;99.90
18426;DHT22;9340;48.756;9.226;2023-04-03T05:21:55;4.80;99.90
18426;DHT22;9340;48.756;9.226;2023-04-03T05:24:22;4.80;99.90
18426;DHT22;9340;48.756;9.226;2023-04-03T05:26:48;4.80;99.90
18426;DHT22;9340;48.756;9.226;2023-04-03T05:29:15;4.80;99.90
18426;DHT22;9340;48.756;9.226;2023-04-03T05:31:42;4.90;99.90
18426;DHT22;9340;48.756;9.226;2023-04-03T05:34:11;5.00;99.90
18426;DHT22;9340;48.756;9.226;2023-04-03T05:36:38;5.10;99.90
18426;DHT22;9340;48.756;9.226;2023-04-03T05:39:05;5.10;99.90
18426;DHT22;9340;48.756;9.226;2023-04-03T05:41:31;5.20;99.90
18426;DHT22;9340;48.756;9.226;2023-04-03T05:43:58;5.20;99.90
18426;DHT22;9340;48.756;9.226;2023-04-03T05:46:25;5.10;99.90
18426;DHT22;9340;48.756;9.226;2023-04-03T05:48:51;5.30;99.90
18426;DHT22;9340;48.756;9.226;2023-04-03T05:51:22;5.30;99.90
18426;DHT22;9340;48.756;9.226;2023-04-03T05:53:54;5.40;99.90
18426;DHT22;9340;48.756;9.226;2023-04-03T05:56:21;5.50;99.90
18426;DHT22;9340;48.756;9.226;2023-04-03T05:58:48;5.50;99.90
18426;DHT22;9340;48.756;9.226;2023-04-03T06:01:14;5.50;99.90
18426;DHT22;9340;48.756;9.226;2023-04-03T06:03:41;5.50;99.90
18426;DHT22;9340;48.756;9.226;2023-04-03T06:06:10;5.50;99.90
18426;DHT22;9340;48.756;9.226;2023-04-03T06:08:39;5.50;99.90
18426;DHT22;9340;48.756;9.226;2023-04-03T06:11:06;5.40;99.90
18426;DHT22;9340;48.756;9.226;2023-04-03T06:13:34;5.40;99.90
18426;DHT22;9340;48.756;9.226;2023-04-03T06:16:01;5.40;99.90
18426;DHT22;9340;48.756;9.226;2023-04-03T06:18:29;5.50;99.90
18426;DHT22;9340;48.756;9.226;2023-04-03T06:20:56;5.70;99.90
18426;DHT22;9340;48.756;9.226;2023-04-03T06:23:23;5.70;99.90
18426;DHT22;9340;48.756;9.226;2023-04-03T06:25:51;5.80;99.90
18426;DHT22;9340;48.756;9.226;2023-04-03T06:28:18;5.90;99.90
18426;DHT22;9340;48.756;9.226;2023-04-03T06:30:45;5.90;99.90
18426;DHT22;9340;48.756;9.226;2023-04-03T06:33:12;6.00;99.90
18426;DHT22;9340;48.756;9.226;2023-04-03T06:35:38;5.90;99.90
18426;DHT22;9340;48.756;9.226;2023-04-03T06:38:06;5.80;99.90
18426;DHT22;9340;48.756;9.226;2023-04-03T06:40:35;5.90;99.90
18426;DHT22;9340;48.756;9.226;2023-04-03T06:43:03;5.90;99.90
18426;DHT22;9340;48.756;9.226;2023-04-03T06:45:30;6.00;99.90
18426;DHT22;9340;48.756;9.226;2023-04-03T06:47:57;6.20;99.90
18426;DHT22;9340;48.756;9.226;2023-04-03T06:50:23;6.40;99.90
18426;DHT22;9340;48.756;9.226;2023-04-03T06:52:50;6.40;99.90
18426;DHT22;9340;48.756;9.226;2023-04-03T06:55:17;6.50;99.90
18426;DHT22;9340;48.756;9.226;2023-04-03T06:57:44;6.40;99.90
18426;DHT22;9340;48.756;9.226;2023-04-03T07:00:13;6.20;99.90
18426;DHT22;9340;48.756;9.226;2023-04-03T07:02:41;6.10;99.90
18426;DHT22;9340;48.756;9.226;2023-04-03T07:05:08;6.20;99.90
18426;DHT22;9340;48.756;9.226;2023-04-03T07:07:35;6.30;99.90
18426;DHT22;9340;48.756;9.226;2023-04-03T07:10:04;6.60;99.90
18426;DHT22;9340;48.756;9.226;2023-04-03T07:12:30;6.80;99.90
18426;DHT22;9340;48.756;9.226;2023-04-03T07:14:57;6.80;99.90
18426;DHT22;9340;48.756;9.226;2023-04-03T07:17:25;6.90;99.90
18426;DHT22;9340;48.756;9.226;2023-04-03T07:19:52;6.80;99.90
18426;DHT22;9340;48.756;9.226;2023-04-03T07:22:19;6.90;99.90
18426;DHT22;9340;48.756;9.226;2023-04-03T07:24:46;7.10;99.90
18426;DHT22;9340;48.756;9.226;2023-04-03T07:27:12;7.30;99.90
18426;DHT22;9340;48.756;9.226;2023-04-03T07:29:39;7.30;99.90
18426;DHT22;9340;48.756;9.226;2023-04-03T07:32:06;7.20;99.90
18426;DHT22;9340;48.756;9.226;2023-04-03T07:34:34;7.00;99.90
18426;DHT22;9340;48.756;9.226;2023-04-03T07:37:01;6.90;99.90
18426;DHT22;9340;48.756;9.226;2023-04-03T07:39:28;6.90;99.90
18426;DHT22;9340;48.756;9.226;2023-04-03T07:41:54;7.10;99.90
18426;DHT22;9340;48.756;9.226;2023-04-03T07:44:21;7.30;99.90
18426;DHT22;9340;48.756;9.226;2023-04-03T07:46:48;7.40;99.90
18426;DHT22;9340;48.756;9.226;2023-04-03T07:49:16;7.50;99.90
18426;DHT22;9340;48.756;9.226;2023-04-03T07:51:44;7.40;99.90
18426;DHT22;9340;48.756;9.226;2023-04-03T07:54:12;7.40;99.90
18426;DHT22;9340;48.756;9.226;2023-04-03T07:56:38;7.10;99.90
18426;DHT22;9340;48.756;9.226;2023-04-03T07:59:05;7.20;99.90
18426;DHT22;9340;48.756;9.226;2023-04-03T08:01:32;7.40;99.90
18426;DHT22;9340;48.756;9.226;2023-04-03T08:03:59;7.60;99.90
18426;DHT22;9340;48.756;9.226;2023-04-03T08:06:25;7.60;99.90
18426;DHT22;9340;48.756;9.226;2023-04-03T08:08:53;7.70;99.90
18426;DHT22;9340;48.756;9.226;2023-04-03T08:11:21;7.90;99.90
18426;DHT22;9340;48.756;9.226;2023-04-03T08:13:49;8.00;99.90
18426;DHT22;9340;48.756;9.226;2023-04-03T08:16:17;8.00;99.90
18426;DHT22;9340;48.756;9.226;2023-04-03T08:18:44;7.90;99.90
18426;DHT22;9340;48.756;9.226;2023-04-03T08:21:12;7.70;99.90
18426;DHT22;9340;48.756;9.226;2023-04-03T08:23:39;7.50;99.90
18426;DHT22;9340;48.756;9.226;2023-04-03T08:26:10;7.70;99.90
18426;DHT22;9340;48.756;9.226;2023-04-03T08:28:37;7.90;99.90
18426;DHT22;9340;48.756;9.226;2023-04-03T08:31:04;8.00;99.90
18426;DHT22;9340;48.756;9.226;2023-04-03T08:33:32;8.00;99.90
18426;DHT22;9340;48.756;9.226;2023-04-03T08:36:01;7.80;99.90
18426;DHT22;9340;48.756;9.226;2023-04-03T08:38:28;7.70;99.90
18426;DHT22;9340;48.756;9.226;2023-04-03T08:41:07;7.80;99.90
18426;DHT22;9340;48.756;9.226;2023-04-03T08:43:48;8.00;99.90
18426;DHT22;9340;48.756;9.226;2023-04-03T08:46:23;8.30;99.90
18426;DHT22;9340;48.756;9.226;2023-04-03T08:48:53;8.80;99.90
18426;DHT22;9340;48.756;9.226;2023-04-03T08:51:20;9.00;99.90
18426;DHT22;9340;48.756;9.226;2023-04-03T08:53:55;9.20;99.90
18426;DHT22;9340;48.756;9.226;2023-04-03T08:56:24;9.20;99.90
18426;DHT22;9340;48.756;9.226;2023-04-03T08:58:57;9.40;99.90
18426;DHT22;9340;48.756;9.226;2023-04-03T09:01:27;9.30;99.90
18426;DHT22;9340;48.756;9.226;2023-04-03T09:03:56;9.40;99.90
18426;DHT22;9340;48.756;9.226;2023-04-03T09:06:26;9.60;99.90
18426;DHT22;9340;48.756;9.226;2023-04-03T09:09:04;9.40;99.90
18426;DHT22;9340;48.756;9.226;2023-04-03T09:11:39;9.50;99.90
18426;DHT22;9340;48.756;9.226;2023-04-03T09:14:17;9.40;99.90
18426;DHT22;9340;48.756;9.226;2023-04-03T09:16:54;9.30;99.90
18426;DHT22;9340;48.756;9.226;2023-04-03T09:19:30;9.50;99.90
18426;DHT22;9340;48.756;9.226;2023-04-03T09:22:07;9.70;99.90
18426;DHT22;9340;48.756;9.226;2023-04-03T09:24:37;9.60;99.90
18426;DHT22;9340;48.756;9.226;2023-04-03T09:27:06;9.30;99.90
18426;DHT22;9340;48.756;9.226;2023-04-03T09:29:37;9.00;99.90
18426;DHT22;9340;48.756;9.226;2023-04-03T09:32:18;8.90;99.90
18426;DHT22;9340;48.756;9.226;2023-04-03T09:34:46;8.90;99.90
18426;DHT22;9340;48.756;9.226;2023-04-03T09:37:35;8.80;99.90
18426;DHT22;9340;48.756;9.226;2023-04-03T09:40:03;8.80;99.90
18426;DHT22;9340;48.756;9.226;2023-04-03T09:42:31;9.20;99.90
18426;DHT22;9340;48.756;9.226;2023-04-03T09:45:00;9.50;99.90
18426;DHT22;9340;48.756;9.226;2023-04-03T09:47:28;9.80;99.90
18426;DHT22;9340;48.756;9.226;2023-04-03T09:50:15;9.70;99.90
18426;DHT22;9340;48.756;9.226;2023-04-03T09:52:46;9.40;99.90
18426;DHT22;9340;48.756;9.226;2023-04-03T09:55:15;9.20;99.90
18426;DHT22;9340;48.756;9.226;2023-04-03T09:57:42;9.10;99.90
18426;DHT22;9340;48.756;9.226;2023-04-03T10:00:21;9.10;99.90
18426;DHT22;9340;48.756;9.226;2023-04-03T10:02:50;8.90;99.90
18426;DHT22;9340;48.756;9.226;2023-04-03T10:05:27;8.90;99.90
18426;DHT22;9340;48.756;9.226;2023-04-03T10:08:08;8.70;99.90
18426;DHT22;9340;48.756;9.226;2023-04-03T10:10:36;8.10;99.90
18426;DHT22;9340;48.756;9.226;2023-04-03T10:13:05;8.10;99.90
18426;DHT22;9340;48.756;9.226;2023-04-03T10:15:36;8.20;99.90
18426;DHT22;9340;48.756;9.226;2023-04-03T10:18:09;8.40;99.90
18426;DHT22;9340;48.756;9.226;2023-04-03T10:20:44;8.60;99.90
18426;DHT22;9340;48.756;9.226;2023-04-03T10:23:18;8.90;99.90
18426;DHT22;9340;48.756;9.226;2023-04-03T10:25:56;9.10;99.90
18426;DHT22;9340;48.756;9.226;2023-04-03T10:28:31;9.30;99.90
18426;DHT22;9340;48.756;9.226;2023-04-03T10:31:05;9.30;99.90
18426;DHT22;9340;48.756;9.226;2023-04-03T10:33:53;9.20;99.90
18426;DHT22;9340;48.756;9.226;2023-04-03T10:36:31;8.90;99.90
18426;DHT22;9340;48.756;9.226;2023-04-03T10:39:04;8.70;99.90
18426;DHT22;9340;48.756;9.226;2023-04-03T10:41:45;8.70;99.90
18426;DHT22;9340;48.756;9.226;2023-04-03T10:44:19;8.90;99.90
18426;DHT22;9340;48.756;9.226;2023-04-03T10:46:50;9.20;99.90
18426;DHT22;9340;48.756;9.226;2023-04-03T10:49:26;9.20;99.90
18426;DHT22;9340;48.756;9.226;2023-04-03T10:51:59;9.00;99.90
18426;DHT22;9340;48.756;9.226;2023-04-03T10:54:34;9.00;99.90
18426;DHT22;9340;48.756;9.226;2023-04-03T10:57:04;9.10;99.90
18426;DHT22;9340;48.756;9.226;2023-04-03T10:59:33;9.00;99.90
18426;DHT22;9340;48.756;9.226;2023-04-03T11:02:06;8.90;99.90
18426;DHT22;9340;48.756;9.226;2023-04-03T11:04:36;9.10;99.90
18426;DHT22;9340;48.756;9.226;2023-04-03T11:07:08;9.30;99.90
18426;DHT22;9340;48.756;9.226;2023-04-03T11:09:41;9.40;99.90
18426;DHT22;9340;48.756;9.226;2023-04-03T11:12:13;9.60;99.90
18426;DHT22;9340;48.756;9.226;2023-04-03T11:14:41;9.70;99.90
18426;DHT22;9340;48.756;9.226;2023-04-03T11:17:19;9.50;99.90
18426;DHT22;9340;48.756;9.226;2023-04-03T11:19:52;9.20;99.90
18426;DHT22;9340;48.756;9.226;2023-04-03T11:22:26;9.00;99.90
18426;DHT22;9340;48.756;9.226;2023-04-03T11:24:59;8.80;99.90
18426;DHT22;9340;48.756;9.226;2023-04-03T11:27:33;8.50;99.90
18426;DHT22;9340;48.756;9.226;2023-04-03T11:30:06;8.50;99.90
18426;DHT22;9340;48.756;9.226;2023-04-03T11:32:59;8.60;99.90
18426;DHT22;9340;48.756;9.226;2023-04-03T11:35:28;8.80;99.90
18426;DHT22;9340;48.756;9.226;2023-04-03T11:37:57;9.00;99.90
18426;DHT22;9340;48.756;9.226;2023-04-03T11:40:27;9.00;99.90
18426;DHT22;9340;48.756;9.226;2023-04-03T11:43:04;9.10;99.90
18426;DHT22;9340;48.756;9.226;2023-04-03T11:45:36;9.20;99.90
18426;DHT22;9340;48.756;9.226;2023-04-03T11:48:09;9.20;99.90
18426;DHT22;9340;48.756;9.226;2023-04-03T11:50:53;9.40;99.90
18426;DHT22;9340;48.756;9.226;2023-04-03T11:53:41;9.30;99.90
18426;DHT22;9340;48.756;9.226;2023-04-03T11:56:27;9.10;99.90
18426;DHT22;9340;48.756;9.226;2023-04-03T11:59:21;9.10;99.90
18426;DHT22;9340;48.756;9.226;2023-04-03T12:01:49;9.10;99.90
18426;DHT22;9340;48.756;9.226;2023-04-03T12:04:19;9.00;99.90
18426;DHT22;9340;48.756;9.226;2023-04-03T12:07:08;9.00;99.90
18426;DHT22;9340;48.756;9.226;2023-04-03T12:12:56;9.10;99.90
18426;DHT22;9340;48.756;9.226;2023-04-03T12:15:52;9.10;99.90
18426;DHT22;9340;48.756;9.226;2023-04-03T12:18:43;9.10;99.90
18426;DHT22;9340;48.756;9.226;2023-04-03T12:21:12;8.80;99.90
18426;DHT22;9340;48.756;9.226;2023-04-03T12:24:02;8.80;99.90
18426;DHT22;9340;48.756;9.226;2023-04-03T12:26:32;9.00;99.90
18426;DHT22;9340;48.756;9.226;2023-04-03T12:29:07;9.40;99.90
18426;DHT22;9340;48.756;9.226;2023-04-03T12:31:45;9.60;99.90
18426;DHT22;9340;48.756;9.226;2023-04-03T12:34:26;9.50;99.90
18426;DHT22;9340;48.756;9.226;2023-04-03T12:37:03;9.30;99.90
18426;DHT22;9340;48.756;9.226;2023-04-03T12:39:55;9.10;99.90
18426;DHT22;9340;48.756;9.226;2023-04-03T12:42:39;9.10;99.90
18426;DHT22;9340;48.756;9.226;2023-04-03T12:45:16;9.00;99.90
18426;DHT22;9340;48.756;9.226;2023-04-03T12:47:44;9.20;99.90
18426;DHT22;9340;48.756;9.226;2023-04-03T12:50:21;9.20;99.90
18426;DHT22;9340;48.756;9.226;2023-04-03T12:52:54;9.30;99.90
18426;DHT22;9340;48.756;9.226;2023-04-03T12:55:22;9.60;99.90
18426;DHT22;9340;48.756;9.226;2023-04-03T12:57:49;9.90;99.90
18426;DHT22;9340;48.756;9.226;2023-04-03T13:00:28;10.20;99.90
18426;DHT22;9340;48.756;9.226;2023-04-03T13:02:55;10.20;99.90
18426;DHT22;9340;48.756;9.226;2023-04-03T13:05:23;10.10;99.90
18426;DHT22;9340;48.756;9.226;2023-04-03T13:07:56;10.30;99.90
18426;DHT22;9340;48.756;9.226;2023-04-03T13:10:24;10.40;99.90
18426;DHT22;9340;48.756;9.226;2023-04-03T13:12:54;10.50;99.90
18426;DHT22;9340;48.756;9.226;2023-04-03T13:15:25;10.50;99.90
18426;DHT22;9340;48.756;9.226;2023-04-03T13:17:53;10.70;99.90
18426;DHT22;9340;48.756;9.226;2023-04-03T13:20:25;10.70;99.90
18426;DHT22;9340;48.756;9.226;2023-04-03T13:22:57;10.60;99.90
18426;DHT22;9340;48.756;9.226;2023-04-03T13:25:28;10.80;99.90
18426;DHT22;9340;48.756;9.226;2023-04-03T13:27:56;11.00;99.90
18426;DHT22;9340;48.756;9.226;2023-04-03T13:30:28;11.00;99.90
18426;DHT22;9340;48.756;9.226;2023-04-03T13:32:56;11.20;99.90
18426;DHT22;9340;48.756;9.226;2023-04-03T13:35:32;11.20;99.90
18426;DHT22;9340;48.756;9.226;2023-04-03T13:38:03;11.10;99.90
18426;DHT22;9340;48.756;9.226;2023-04-03T13:40:30;10.90;99.90
18426;DHT22;9340;48.756;9.226;2023-04-03T13:43:06;11.00;99.90
18426;DHT22;9340;48.756;9.226;2023-04-03T13:45:33;11.40;99.90
18426;DHT22;9340;48.756;9.226;2023-04-03T13:48:10;11.30;99.90
18426;DHT22;9340;48.756;9.226;2023-04-03T13:50:54;11.20;99.90
18426;DHT22;9340;48.756;9.226;2023-04-03T13:53:25;11.10;99.90
18426;DHT22;9340;48.756;9.226;2023-04-03T13:55:56;10.80;99.90
18426;DHT22;9340;48.756;9.226;2023-04-03T13:58:25;10.80;99.90
18426;DHT22;9340;48.756;9.226;2023-04-03T14:00:54;10.90;99.90
18426;DHT22;9340;48.756;9.226;2023-04-03T14:03:25;11.00;99.90
18426;DHT22;9340;48.756;9.226;2023-04-03T14:05:52;10.80;99.90
18426;DHT22;9340;48.756;9.226;2023-04-03T14:08:20;10.50;99.90
18426;DHT22;9340;48.756;9.226;2023-04-03T14:10:48;10.30;99.90
18426;DHT22;9340;48.756;9.226;2023-04-03T14:13:16;10.30;99.90
18426;DHT22;9340;48.756;9.226;2023-04-03T14:15:44;10.40;99.90
18426;DHT22;9340;48.756;9.226;2023-04-03T14:18:12;10.20;99.90
18426;DHT22;9340;48.756;9.226;2023-04-03T14:20:39;9.90;99.90
18426;DHT22;9340;48.756;9.226;2023-04-03T14:23:07;9.90;99.90
18426;DHT22;9340;48.756;9.226;2023-04-03T14:25:34;10.00;99.90
18426;DHT22;9340;48.756;9.226;2023-04-03T14:28:14;9.90;99.90
18426;DHT22;9340;48.756;9.226;2023-04-03T14:30:41;9.50;99.90
18426;DHT22;9340;48.756;9.226;2023-04-03T14:33:11;9.30;99.90
18426;DHT22;9340;48.756;9.226;2023-04-03T14:35:39;9.30;99.90
18426;DHT22;9340;48.756;9.226;2023-04-03T14:38:16;9.70;99.90
18426;DHT22;9340;48.756;9.226;2023-04-03T14:40:46;10.10;99.90
18426;DHT22;9340;48.756;9.226;2023-04-03T14:43:14;10.50;99.90
18426;DHT22;9340;48.756;9.226;2023-04-03T14:45:41;10.50;99.90
18426;DHT22;9340;48.756;9.226;2023-04-03T14:48:10;10.40;99.90
18426;DHT22;9340;48.756;9.226;2023-04-03T14:50:39;10.10;99.90
18426;DHT22;9340;48.756;9.226;2023-04-03T14:53:06;9.60;99.90
18426;DHT22;9340;48.756;9.226;2023-04-03T14:55:33;9.40;99.90
18426;DHT22;9340;48.756;9.226;2023-04-03T14:58:01;9.50;99.90
18426;DHT22;9340;48.756;9.226;2023-04-03T15:00:29;9.40;99.90
18426;DHT22;9340;48.756;9.226;2023-04-03T15:02:56;9.50;99.90
18426;DHT22;9340;48.756;9.226;2023-04-03T15:05:22;9.70;99.90
18426;DHT22;9340;48.756;9.226;2023-04-03T15:07:52;9.60;99.90
18426;DHT22;9340;48.756;9.226;2023-04-03T15:10:22;9.50;99.90
18426;DHT22;9340;48.756;9.226;2023-04-03T15:12:49;9.60;99.90
18426;DHT22;9340;48.756;9.226;2023-04-03T15:15:17;9.70;99.90
18426;DHT22;9340;48.756;9.226;2023-04-03T15:17:55;9.80;99.90
18426;DHT22;9340;48.756;9.226;2023-04-03T15:20:26;10.00;99.90
18426;DHT22;9340;48.756;9.226;2023-04-03T15:22:53;10.10;99.90
18426;DHT22;9340;48.756;9.226;2023-04-03T15:25:21;10.20;99.90
18426;DHT22;9340;48.756;9.226;2023-04-03T15:27:48;10.20;99.90
18426;DHT22;9340;48.756;9.226;2023-04-03T15:30:17;10.00;99.90
18426;DHT22;9340;48.756;9.226;2023-04-03T15:32:46;9.60;99.90
18426;DHT22;9340;48.756;9.226;2023-04-03T15:35:12;9.20;99.90
18426;DHT22;9340;48.756;9.226;2023-04-03T15:37:39;8.80;99.90
18426;DHT22;9340;48.756;9.226;2023-04-03T15:40:07;8.50;99.90
18426;DHT22;9340;48.756;9.226;2023-04-03T15:42:34;8.00;99.90
18426;DHT22;9340;48.756;9.226;2023-04-03T15:45:01;7.90;99.90
18426;DHT22;9340;48.756;9.226;2023-04-03T15:47:28;7.80;99.90
18426;DHT22;9340;48.756;9.226;2023-04-03T15:49:56;7.90;99.90
18426;DHT22;9340;48.756;9.226;2023-04-03T15:52:23;7.90;99.90
18426;DHT22;9340;48.756;9.226;2023-04-03T15:54:50;7.90;99.90
18426;DHT22;9340;48.756;9.226;2023-04-03T15:57:17;8.00;99.90
18426;DHT22;9340;48.756;9.226;2023-04-03T15:59:43;7.90;99.90
18426;DHT22;9340;48.756;9.226;2023-04-03T16:02:12;7.90;99.90
18426;DHT22;9340;48.756;9.226;2023-04-03T16:04:39;8.00;99.90
18426;DHT22;9340;48.756;9.226;2023-04-03T16:07:08;8.20;99.90
18426;DHT22;9340;48.756;9.226;2023-04-03T16:09:35;8.30;99.90
18426;DHT22;9340;48.756;9.226;2023-04-03T16:12:02;8.40;99.90
18426;DHT22;9340;48.756;9.226;2023-04-03T16:14:30;8.50;99.90
18426;DHT22;9340;48.756;9.226;2023-04-03T16:16:57;8.40;99.90
18426;DHT22;9340;48.756;9.226;2023-04-03T16:19:24;8.10;99.90